Time;durP1;ratioP1;P1;durP2;ratioP2;P2;SDS_P1;SDS_P2;PMS_P1;PMS_P2;Temp;Humidity;BMP_temperature;BMP_pressure;BME280_temperature;BME280_humidity;BME280_pressure;Samples;Min_cycle;Max_cycle;Signal;HPM_P1;HPM_P2
2023/02/03 00:01:08;;;;;;;17.13;9.38;;;13.30;60.80;;;;;;5009777;28;20083;-82
2023/02/03 00:03:34;;;;;;;15.63;9.13;;;13.30;60.70;;;;;;5009473;28;20129;-82
2023/02/03 00:06:02;;;;;;;14.85;9.10;;;13.30;60.70;;;;;;5008992;28;20131;-82
2023/02/03 00:08:29;;;;;;;15.82;9.48;;;13.30;60.70;;;;;;5009280;28;20029;-82
2023/02/03 00:10:55;;;;;;;16.98;9.52;;;13.30;60.60;;;;;;5008706;28;20033;-82
2023/02/03 00:13:21;;;;;;;15.80;9.35;;;13.30;60.60;;;;;;5007869;28;20029;-82
2023/02/03 00:15:47;;;;;;;16.05;9.55;;;13.30;60.50;;;;;;5008940;28;20124;-83
2023/02/03 00:18:13;;;;;;;14.73;9.43;;;13.30;60.50;;;;;;5007793;28;20069;-83
2023/02/03 00:20:39;;;;;;;15.23;9.07;;;13.30;60.50;;;;;;5008946;28;20056;-83
2023/02/03 00:23:11;;;;;;;16.13;9.25;;;13.30;60.60;;;;;;5024767;28;20040;-83
2023/02/03 00:25:38;;;;;;;14.30;9.02;;;13.30;60.90;;;;;;5008904;28;21345;-82
2023/02/03 00:28:04;;;;;;;16.38;9.43;;;13.30;61.00;;;;;;5006994;28;20049;-80
2023/02/03 00:30:32;;;;;;;15.90;9.20;;;13.30;60.90;;;;;;5007514;28;20393;-80
2023/02/03 00:32:58;;;;;;;15.60;9.27;;;13.30;60.80;;;;;;5007744;28;20030;-80
2023/02/03 00:35:24;;;;;;;14.82;9.02;;;13.30;60.80;;;;;;5007372;28;20381;-80
2023/02/03 00:37:55;;;;;;;14.55;9.23;;;13.30;60.80;;;;;;5007316;28;20508;-79
2023/02/03 00:40:23;;;;;;;17.05;9.93;;;13.30;60.60;;;;;;5001795;28;20049;-82
2023/02/03 00:42:50;;;;;;;13.63;9.35;;;13.30;60.70;;;;;;5006546;28;20041;-83
2023/02/03 00:45:16;;;;;;;16.45;9.38;;;13.30;60.70;;;;;;5007181;28;20041;-83
2023/02/03 00:47:42;;;;;;;17.27;9.27;;;13.30;60.70;;;;;;4989840;28;20118;-83
2023/02/03 00:50:09;;;;;;;15.88;8.88;;;13.30;60.70;;;;;;5008037;28;20440;-80
2023/02/03 00:52:35;;;;;;;15.65;9.30;;;13.30;60.60;;;;;;5002563;28;20630;-80
2023/02/03 00:55:02;;;;;;;15.30;9.50;;;13.30;60.70;;;;;;5007630;28;20044;-81
2023/02/03 00:57:28;;;;;;;14.25;9.15;;;13.30;60.60;;;;;;5007032;28;20044;-81
2023/02/03 00:59:54;;;;;;;16.60;9.77;;;13.30;60.70;;;;;;4990448;28;20037;-80
2023/02/03 01:02:21;;;;;;;13.32;8.70;;;13.30;60.60;;;;;;5006274;28;20068;-81
2023/02/03 01:04:48;;;;;;;16.83;9.65;;;13.30;60.60;;;;;;5006467;28;20037;-81
2023/02/03 01:07:14;;;;;;;15.05;8.77;;;13.30;60.60;;;;;;5006487;28;20563;-80
2023/02/03 01:09:40;;;;;;;17.50;9.38;;;13.30;60.50;;;;;;5007117;28;20121;-80
2023/02/03 01:12:06;;;;;;;14.77;9.07;;;13.30;60.50;;;;;;4988426;28;20501;-79
2023/02/03 01:14:33;;;;;;;15.65;9.15;;;13.30;60.50;;;;;;5007897;28;20038;-79
2023/02/03 01:16:59;;;;;;;15.68;8.88;;;13.30;60.50;;;;;;5007179;28;20084;-79
2023/02/03 01:19:25;;;;;;;14.52;9.50;;;13.30;60.50;;;;;;5006313;28;20034;-80
2023/02/03 01:21:52;;;;;;;15.32;9.05;;;13.30;60.40;;;;;;5006361;28;20128;-82
2023/02/03 01:24:18;;;;;;;14.73;8.90;;;13.30;60.40;;;;;;5005740;28;20127;-81
2023/02/03 01:26:43;;;;;;;12.63;8.13;;;13.30;60.50;;;;;;5006611;28;20037;-81
2023/02/03 01:29:10;;;;;;;15.57;9.32;;;13.20;60.50;;;;;;5001292;28;20045;-82
2023/02/03 01:31:41;;;;;;;15.82;9.25;;;13.30;60.70;;;;;;4988636;28;20034;-83
2023/02/03 01:34:11;;;;;;;14.93;10.07;;;13.30;60.90;;;;;;5008054;28;20404;-80
2023/02/03 01:36:37;;;;;;;14.45;8.77;;;13.30;61.00;;;;;;5002541;28;20415;-82
2023/02/03 01:39:04;;;;;;;14.88;9.20;;;13.20;60.90;;;;;;5007332;28;20184;-83
2023/02/03 01:41:36;;;;;;;16.00;9.25;;;13.30;61.00;;;;;;5022508;28;20036;-83
2023/02/03 01:44:31;;;;;;;17.50;9.55;;;13.20;61.00;;;;;;4987521;28;20274;-83
2023/02/03 01:46:57;;;;;;;17.13;9.82;;;13.20;61.00;;;;;;5007589;28;20382;-82
2023/02/03 01:49:35;;;;;;;15.15;9.85;;;13.20;61.00;;;;;;5006325;28;20316;-83
2023/02/03 01:52:01;;;;;;;15.70;9.55;;;13.30;61.00;;;;;;5023420;28;20715;-83
2023/02/03 01:54:31;;;;;;;16.15;9.90;;;13.20;60.80;;;;;;5008385;28;20391;-83
2023/02/03 01:57:03;;;;;;;17.58;10.05;;;13.20;60.80;;;;;;4990365;28;20436;-81
2023/02/03 01:59:30;;;;;;;16.38;10.15;;;13.20;60.80;;;;;;4990168;28;20044;-83
2023/02/03 02:01:58;;;;;;;15.43;9.40;;;13.20;60.80;;;;;;5001263;28;20538;-82
2023/02/03 02:04:31;;;;;;;15.68;10.43;;;13.20;60.80;;;;;;5023050;28;20045;-83
2023/02/03 02:06:58;;;;;;;15.73;9.63;;;13.20;60.80;;;;;;5007013;28;20033;-82
2023/02/03 02:09:25;;;;;;;15.45;10.07;;;13.20;61.00;;;;;;5007453;28;20033;-83
2023/02/03 02:11:51;;;;;;;17.60;10.25;;;13.20;60.80;;;;;;4990407;28;20048;-83
2023/02/03 02:14:18;;;;;;;18.60;10.32;;;13.20;60.80;;;;;;5006217;28;20034;-83
2023/02/03 02:16:55;;;;;;;16.35;9.70;;;13.20;60.90;;;;;;5007751;28;20032;-82
2023/02/03 02:19:48;;;;;;;17.30;10.80;;;13.20;60.80;;;;;;5006181;28;20084;-81
2023/02/03 02:22:52;;;;;;;16.33;10.07;;;13.20;60.80;;;;;;5022394;28;20088;-83
2023/02/03 02:25:29;;;;;;;18.25;10.13;;;13.20;60.70;;;;;;5007445;28;20511;-81
2023/02/03 02:28:14;;;;;;;15.98;9.18;;;13.20;60.70;;;;;;4989308;28;20049;-82
2023/02/03 02:31:05;;;;;;;16.60;9.90;;;13.20;60.80;;;;;;5006618;28;20030;-82
2023/02/03 02:34:10;;;;;;;18.20;10.30;;;13.20;60.80;;;;;;5022696;28;20030;-84
2023/02/03 02:36:47;;;;;;;17.55;10.15;;;13.20;60.90;;;;;;4947391;28;20039;-82
2023/02/03 02:39:29;;;;;;;14.48;9.48;;;13.20;61.00;;;;;;4998529;28;20038;-83
2023/02/03 02:42:03;;;;;;;18.58;10.15;;;13.20;61.10;;;;;;5006522;28;20036;-81
2023/02/03 02:44:34;;;;;;;17.08;9.85;;;13.20;61.10;;;;;;5005317;28;20030;-82
2023/02/03 02:47:21;;;;;;;16.40;9.27;;;13.20;61.10;;;;;;5023136;28;20034;-82
2023/02/03 02:50:16;;;;;;;18.38;9.98;;;13.20;61.20;;;;;;5005072;28;20034;-83
2023/02/03 02:52:43;;;;;;;17.52;10.75;;;13.20;61.20;;;;;;5007839;28;20125;-84
2023/02/03 02:55:23;;;;;;;16.60;8.77;;;13.20;61.00;;;;;;5007930;28;20444;-85
2023/02/03 02:57:54;;;;;;;19.02;10.40;;;13.20;61.00;;;;;;4990576;28;20531;-84
2023/02/03 03:00:21;;;;;;;17.80;10.63;;;13.20;61.00;;;;;;5007505;28;20045;-85
2023/02/03 03:02:47;;;;;;;16.75;9.90;;;13.20;60.90;;;;;;5023330;28;20038;-85
2023/02/03 03:05:15;;;;;;;19.20;9.70;;;13.20;60.80;;;;;;5008494;28;20037;-83
2023/02/03 03:08:01;;;;;;;15.88;9.13;;;13.20;60.80;;;;;;5012571;28;20069;-84
2023/02/03 03:10:31;;;;;;;18.08;10.73;;;13.20;60.90;;;;;;4994727;28;20049;-87
2023/02/03 03:13:04;;;;;;;19.38;10.15;;;13.20;60.80;;;;;;4994060;28;22121;-82
2023/02/03 03:15:31;;;;;;;16.33;9.85;;;13.20;60.90;;;;;;5013122;28;20421;-82
2023/02/03 03:18:05;;;;;;;17.73;10.35;;;13.20;60.80;;;;;;5027623;28;20045;-81
2023/02/03 03:20:32;;;;;;;17.50;9.90;;;13.20;60.90;;;;;;5011279;28;20042;-81
2023/02/03 03:23:13;;;;;;;18.02;10.35;;;13.20;60.90;;;;;;4991763;28;20037;-80
2023/02/03 03:25:45;;;;;;;17.98;10.57;;;13.20;60.80;;;;;;5011360;28;20049;-80
2023/02/03 03:28:19;;;;;;;17.13;10.40;;;13.20;60.90;;;;;;5008159;28;20045;-80
2023/02/03 03:30:45;;;;;;;15.68;8.82;;;13.20;61.00;;;;;;5008416;28;20070;-80
2023/02/03 03:33:12;;;;;;;16.60;10.00;;;13.20;61.00;;;;;;5009581;28;20033;-80
2023/02/03 03:35:48;;;;;;;17.95;10.77;;;13.20;60.80;;;;;;5010466;28;20810;-79
2023/02/03 03:38:23;;;;;;;17.30;9.30;;;13.20;60.90;;;;;;5024137;28;20032;-81
2023/02/03 03:40:58;;;;;;;18.10;10.77;;;13.20;61.00;;;;;;5009060;28;20496;-79
2023/02/03 03:43:29;;;;;;;17.92;10.18;;;13.20;60.90;;;;;;5002732;28;20424;-82
2023/02/03 03:46:05;;;;;;;17.13;9.23;;;13.20;61.00;;;;;;5007796;28;20087;-81
2023/02/03 03:48:47;;;;;;;16.50;10.10;;;13.20;61.10;;;;;;5006157;28;20033;-81
2023/02/03 03:51:32;;;;;;;16.92;9.60;;;13.20;61.00;;;;;;5008939;28;20377;-82
2023/02/03 03:54:06;;;;;;;17.98;9.82;;;13.20;61.20;;;;;;5008892;28;20138;-81
2023/02/03 03:56:50;;;;;;;17.30;9.73;;;13.20;61.10;;;;;;5007755;28;20121;-82
2023/02/03 03:59:21;;;;;;;17.70;10.18;;;13.20;61.10;;;;;;5007729;28;20029;-84
2023/02/03 04:01:49;;;;;;;19.70;10.75;;;13.20;61.10;;;;;;5008860;28;20038;-86
2023/02/03 04:04:16;;;;;;;17.00;10.23;;;13.20;61.00;;;;;;5008406;28;20037;-88
2023/02/03 04:06:42;;;;;;;19.63;10.50;;;13.20;61.00;;;;;;5008857;28;20038;-89
2023/02/03 04:09:08;;;;;;;17.85;10.38;;;13.20;61.10;;;;;;5009955;28;20514;-89
2023/02/03 04:14:19;;;;;;;16.33;10.27;;;13.20;61.10;;;;;;5007127;28;20038;-86
2023/02/03 04:16:44;;;;;;;17.92;10.60;;;13.20;61.10;;;;;;5022173;28;20029;-91
2023/02/03 04:19:10;;;;;;;17.70;10.48;;;13.20;61.00;;;;;;5007338;28;20034;-87
2023/02/03 04:21:36;;;;;;;18.60;10.30;;;13.20;61.00;;;;;;5014085;28;20057;-85
2023/02/03 04:24:02;;;;;;;17.67;10.43;;;13.20;61.00;;;;;;5022152;28;20056;-84
2023/02/03 04:26:29;;;;;;;17.17;9.80;;;13.20;61.10;;;;;;5023500;28;20030;-85
2023/02/03 04:28:54;;;;;;;17.33;10.02;;;13.20;61.00;;;;;;5004693;28;20030;-83
2023/02/03 04:31:20;;;;;;;18.30;10.60;;;13.20;61.00;;;;;;5008116;28;20041;-81
2023/02/03 04:33:46;;;;;;;17.75;10.20;;;13.20;61.00;;;;;;5007230;28;20025;-85
2023/02/03 04:36:14;;;;;;;16.60;10.10;;;13.20;61.00;;;;;;5006635;28;20045;-82
2023/02/03 04:38:40;;;;;;;16.88;9.52;;;13.20;61.00;;;;;;5006115;28;20523;-80
2023/02/03 04:41:05;;;;;;;17.50;10.00;;;13.20;61.00;;;;;;5007827;28;20041;-84
2023/02/03 04:43:31;;;;;;;16.38;10.50;;;13.20;61.10;;;;;;5007306;28;20092;-81
2023/02/03 04:46:00;;;;;;;21.35;10.95;;;13.20;61.20;;;;;;5008039;28;20069;-78
2023/02/03 04:48:27;;;;;;;18.75;10.50;;;13.20;61.30;;;;;;5009826;28;20180;-87
2023/02/03 04:50:53;;;;;;;18.55;10.48;;;13.20;61.50;;;;;;5007258;28;20100;-83
2023/02/03 04:53:19;;;;;;;18.77;11.32;;;13.20;61.70;;;;;;5006452;28;20449;-84
2023/02/03 04:55:48;;;;;;;22.05;10.85;;;13.20;62.00;;;;;;5005800;28;20033;-86
2023/02/03 04:58:14;;;;;;;19.90;10.85;;;13.20;62.40;;;;;;5007399;28;20053;-84
2023/02/03 05:00:40;;;;;;;19.40;11.20;;;13.20;62.80;;;;;;5021091;28;20509;-82
2023/02/03 05:03:06;;;;;;;20.70;11.18;;;13.20;62.90;;;;;;5007238;28;20188;-82
2023/02/03 05:05:32;;;;;;;20.08;10.95;;;13.20;62.90;;;;;;5007189;28;20548;-82
2023/02/03 05:07:58;;;;;;;20.83;10.40;;;13.20;63.10;;;;;;5007168;28;21605;-82
2023/02/03 05:10:24;;;;;;;21.25;10.98;;;13.20;63.20;;;;;;5007154;28;20493;-85
2023/02/03 05:12:50;;;;;;;19.33;10.05;;;13.20;63.30;;;;;;5007301;28;20026;-84
2023/02/03 05:15:16;;;;;;;22.80;11.73;;;13.20;63.40;;;;;;5006626;28;20033;-82
2023/02/03 05:17:42;;;;;;;20.65;11.70;;;13.20;63.40;;;;;;5006457;28;20513;-82
2023/02/03 05:20:08;;;;;;;21.33;11.57;;;13.20;63.30;;;;;;5003696;28;20068;-82
2023/02/03 05:22:34;;;;;;;21.65;11.38;;;13.20;63.30;;;;;;5003917;28;20530;-81
2023/02/03 05:25:02;;;;;;;25.35;12.15;;;13.20;63.20;;;;;;5003296;28;20034;-81
2023/02/03 05:27:28;;;;;;;23.05;11.45;;;13.20;63.20;;;;;;5001019;28;20322;-82
2023/02/03 05:29:54;;;;;;;19.33;11.52;;;13.30;63.20;;;;;;5020405;28;20686;-82
2023/02/03 05:32:19;;;;;;;20.85;11.65;;;13.20;63.10;;;;;;5005193;28;20030;-78
2023/02/03 05:34:45;;;;;;;19.80;10.88;;;13.30;63.20;;;;;;5005655;28;20500;-82
2023/02/03 05:37:11;;;;;;;23.25;11.52;;;13.20;63.00;;;;;;5006424;28;20033;-81
2023/02/03 05:39:37;;;;;;;20.27;11.70;;;13.20;62.90;;;;;;5004769;28;20494;-81
2023/02/03 05:42:03;;;;;;;21.67;12.13;;;13.20;62.90;;;;;;5004245;28;20041;-80
2023/02/03 05:44:30;;;;;;;22.65;12.50;;;13.20;62.70;;;;;;5005696;28;20041;-82
2023/02/03 05:46:58;;;;;;;21.40;11.32;;;13.20;62.70;;;;;;5004390;28;20080;-80
2023/02/03 05:49:25;;;;;;;21.52;11.32;;;13.20;62.70;;;;;;5006248;28;20025;-78
2023/02/03 05:51:53;;;;;;;21.17;11.18;;;13.30;62.70;;;;;;5021332;28;20381;-80
2023/02/03 05:54:19;;;;;;;19.77;10.70;;;13.30;62.70;;;;;;5002936;28;20061;-77
2023/02/03 05:56:45;;;;;;;20.50;11.88;;;13.20;62.50;;;;;;5005359;28;20030;-78
2023/02/03 05:59:11;;;;;;;21.70;12.02;;;13.30;62.50;;;;;;5004828;28;20520;-79
2023/02/03 06:01:37;;;;;;;28.92;16.48;;;13.30;62.70;;;;;;5005355;28;20113;-83
2023/02/03 06:04:04;;;;;;;32.10;17.35;;;13.20;59.50;;;;;;5004842;28;20036;-82
2023/02/03 06:06:33;;;;;;;34.80;18.67;;;13.10;56.20;;;;;;4998035;28;20030;-80
2023/02/03 06:09:01;;;;;;;32.97;17.67;;;13.00;55.20;;;;;;4982348;28;20424;-79
2023/02/03 06:11:27;;;;;;;32.33;17.88;;;12.90;55.40;;;;;;4983359;28;20034;-79
2023/02/03 06:13:55;;;;;;;35.85;18.45;;;12.80;55.30;;;;;;4984216;28;20505;-78
2023/02/03 06:16:23;;;;;;;35.05;17.45;;;12.70;55.30;;;;;;4999022;28;20030;-80
2023/02/03 06:18:51;;;;;;;38.70;18.42;;;12.50;55.20;;;;;;4983586;28;20548;-80
2023/02/03 06:21:17;;;;;;;32.63;17.35;;;12.50;55.30;;;;;;4983260;28;20060;-80
2023/02/03 06:23:43;;;;;;;36.40;18.50;;;12.30;55.40;;;;;;4965843;28;20042;-78
2023/02/03 06:26:09;;;;;;;35.00;17.88;;;12.30;55.60;;;;;;4983308;28;20038;-81
2023/02/03 06:28:37;;;;;;;39.05;18.98;;;12.10;55.70;;;;;;4981987;28;20654;-79
2023/02/03 06:31:03;;;;;;;33.35;17.35;;;12.10;56.10;;;;;;4983161;28;20034;-79
2023/02/03 06:33:30;;;;;;;35.40;17.88;;;12.00;56.00;;;;;;4983868;28;20117;-81
2023/02/03 06:35:56;;;;;;;34.67;17.83;;;11.90;56.10;;;;;;4998504;28;20053;-79
2023/02/03 06:38:22;;;;;;;36.10;19.52;;;11.80;56.20;;;;;;4983011;28;20144;-77
2023/02/03 06:40:48;;;;;;;34.13;17.98;;;11.70;56.30;;;;;;4997116;28;20045;-80
2023/02/03 06:43:15;;;;;;;32.72;17.20;;;11.70;57.10;;;;;;4983469;28;20062;-76
2023/02/03 06:45:45;;;;;;;36.03;19.17;;;11.60;56.70;;;;;;4983535;28;20030;-78
2023/02/03 06:48:10;;;;;;;35.47;18.25;;;11.50;56.60;;;;;;4986190;28;20121;-80
2023/02/03 06:50:36;;;;;;;36.75;18.88;;;11.50;56.90;;;;;;4986238;28;20141;-78
2023/02/03 06:53:02;;;;;;;34.97;17.60;;;11.40;56.90;;;;;;4986535;28;20034;-82
2023/02/03 06:55:28;;;;;;;35.85;18.30;;;11.30;57.10;;;;;;5001957;28;20023;-79
2023/02/03 06:57:54;;;;;;;37.92;19.50;;;11.30;57.20;;;;;;4986297;28;20709;-78
2023/02/03 07:00:21;;;;;;;37.83;19.70;;;11.20;57.10;;;;;;4987419;28;20073;-78
2023/02/03 07:02:53;;;;;;;37.35;19.45;;;11.20;57.30;;;;;;4985588;28;20682;-80
2023/02/03 07:05:19;;;;;;;37.28;19.08;;;11.20;57.30;;;;;;4987158;28;20030;-80
2023/02/03 07:07:45;;;;;;;40.35;19.38;;;11.10;57.50;;;;;;4986795;28;20088;-80
2023/02/03 07:10:11;;;;;;;36.80;18.95;;;11.10;57.40;;;;;;4987082;28;20034;-80
2023/02/03 07:12:37;;;;;;;36.30;19.20;;;11.00;57.70;;;;;;4987698;28;20105;-81
2023/02/03 07:15:04;;;;;;;34.40;17.58;;;11.00;57.80;;;;;;4988311;28;20413;-82
2023/02/03 07:17:30;;;;;;;33.25;18.00;;;10.90;57.90;;;;;;4987119;28;20042;-80
2023/02/03 07:19:56;;;;;;;29.63;15.98;;;10.90;58.90;;;;;;4986711;28;20408;-78
2023/02/03 07:22:22;;;;;;;30.83;14.85;;;10.90;60.00;;;;;;4987162;28;20037;-78
2023/02/03 07:24:48;;;;;;;26.50;14.95;;;11.00;60.70;;;;;;4984877;28;20165;-79
2023/02/03 07:27:14;;;;;;;28.65;14.55;;;11.00;61.20;;;;;;4984729;28;20529;-77
2023/02/03 07:29:40;;;;;;;24.92;13.23;;;11.00;61.60;;;;;;4985521;28;20026;-78
2023/02/03 07:32:06;;;;;;;25.35;13.93;;;11.10;62.00;;;;;;4987151;28;20033;-78
2023/02/03 07:34:32;;;;;;;24.92;12.70;;;11.10;62.20;;;;;;4987485;28;20041;-78
2023/02/03 07:36:58;;;;;;;24.92;13.18;;;11.10;62.50;;;;;;4986896;28;20038;-80
2023/02/03 07:39:23;;;;;;;21.88;12.65;;;11.20;62.70;;;;;;4984357;28;20034;-78
2023/02/03 07:41:49;;;;;;;26.20;13.63;;;11.20;62.90;;;;;;4985831;28;20034;-81
2023/02/03 07:44:15;;;;;;;20.95;12.43;;;11.30;63.00;;;;;;4985265;28;20452;-80
2023/02/03 07:46:43;;;;;;;22.90;12.80;;;11.30;63.20;;;;;;4986966;28;20037;-80
2023/02/03 07:49:13;;;;;;;21.90;12.60;;;11.40;63.30;;;;;;4986555;28;20034;-78
2023/02/03 07:51:40;;;;;;;21.40;12.18;;;11.40;63.30;;;;;;4986627;28;20022;-76
2023/02/03 07:54:06;;;;;;;21.85;12.10;;;11.50;63.30;;;;;;4984352;28;20096;-77
2023/02/03 07:56:33;;;;;;;22.40;12.57;;;11.50;63.20;;;;;;4985508;28;20870;-79
2023/02/03 07:58:59;;;;;;;22.45;12.40;;;11.60;63.40;;;;;;4983823;28;20424;-78
2023/02/03 08:01:25;;;;;;;23.50;12.18;;;11.60;63.40;;;;;;4983413;28;20508;-79
2023/02/03 08:03:51;;;;;;;24.45;13.35;;;11.70;63.50;;;;;;4986575;28;20031;-79
2023/02/03 08:06:17;;;;;;;26.95;13.40;;;11.70;63.50;;;;;;4985808;28;20041;-77
2023/02/03 08:08:43;;;;;;;24.45;12.50;;;11.70;63.50;;;;;;4983854;28;20038;-77
2023/02/03 08:11:09;;;;;;;23.58;12.45;;;11.80;63.50;;;;;;4985455;28;20096;-77
2023/02/03 08:13:36;;;;;;;23.65;11.63;;;11.80;63.50;;;;;;4984279;28;20069;-80
2023/02/03 08:16:02;;;;;;;22.48;12.98;;;11.80;63.50;;;;;;4984735;28;20035;-77
2023/02/03 08:18:28;;;;;;;21.92;11.77;;;11.90;63.60;;;;;;4986157;28;20088;-77
2023/02/03 08:20:54;;;;;;;21.15;11.18;;;11.90;63.50;;;;;;4986084;28;20048;-77
2023/02/03 08:23:20;;;;;;;21.60;11.25;;;12.00;63.60;;;;;;4983734;28;20468;-79
2023/02/03 08:25:51;;;;;;;20.75;11.82;;;12.00;63.40;;;;;;4984520;28;20038;-80
2023/02/03 08:28:17;;;;;;;19.92;11.50;;;12.00;63.30;;;;;;4985602;28;20044;-78
2023/02/03 08:30:43;;;;;;;23.50;11.32;;;12.10;63.30;;;;;;4985811;28;20042;-79
2023/02/03 08:33:09;;;;;;;22.17;11.40;;;12.10;63.20;;;;;;4984952;28;20057;-78
2023/02/03 08:35:35;;;;;;;21.48;10.38;;;12.20;63.20;;;;;;5001068;28;20035;-78
2023/02/03 08:38:01;;;;;;;20.38;10.90;;;12.20;63.20;;;;;;4985789;28;20466;-79
2023/02/03 08:40:27;;;;;;;18.75;10.57;;;12.20;63.20;;;;;;4984772;28;20034;-82
2023/02/03 08:42:53;;;;;;;19.35;10.35;;;12.20;63.20;;;;;;4984642;28;20030;-81
2023/02/03 08:45:19;;;;;;;18.17;10.10;;;12.30;63.30;;;;;;4985381;28;20042;-80
2023/02/03 08:47:45;;;;;;;20.90;12.23;;;12.30;63.30;;;;;;4985738;28;20070;-78
2023/02/03 08:50:12;;;;;;;19.23;10.93;;;12.30;63.20;;;;;;4984456;28;20489;-79
2023/02/03 08:52:39;;;;;;;18.80;10.55;;;12.30;63.20;;;;;;4983931;28;20532;-80
2023/02/03 08:55:05;;;;;;;18.35;9.77;;;12.40;63.20;;;;;;4982905;28;20041;-81
2023/02/03 08:57:35;;;;;;;17.30;10.55;;;12.40;63.20;;;;;;4984069;28;20149;-79
2023/02/03 09:00:02;;;;;;;19.75;10.50;;;12.40;63.20;;;;;;4985604;28;20026;-78
2023/02/03 09:02:28;;;;;;;18.90;11.63;;;12.50;63.20;;;;;;4983026;28;20034;-79
2023/02/03 09:04:54;;;;;;;18.08;10.13;;;12.40;63.10;;;;;;4985294;28;20038;-77
2023/02/03 09:07:20;;;;;;;18.27;10.02;;;12.50;63.00;;;;;;4984910;28;20030;-76
2023/02/03 09:09:46;;;;;;;20.70;10.45;;;12.50;63.10;;;;;;4984210;28;20038;-80
2023/02/03 09:12:12;;;;;;;15.55;9.50;;;12.50;63.00;;;;;;4984367;28;20030;-79
2023/02/03 09:14:38;;;;;;;18.83;10.30;;;12.60;63.10;;;;;;4983672;28;20026;-76
2023/02/03 09:17:07;;;;;;;19.38;9.77;;;12.60;63.10;;;;;;4982985;28;21029;-79
2023/02/03 09:19:33;;;;;;;16.75;9.80;;;12.60;63.10;;;;;;4983783;28;20403;-79
2023/02/03 09:21:59;;;;;;;16.63;9.80;;;12.60;63.10;;;;;;4984971;28;20034;-79
2023/02/03 09:24:25;;;;;;;20.25;9.88;;;12.60;63.10;;;;;;4984282;28;20048;-77
2023/02/03 09:26:51;;;;;;;16.95;9.80;;;12.60;63.00;;;;;;4983344;28;20408;-77
2023/02/03 09:29:18;;;;;;;14.20;9.13;;;12.60;63.00;;;;;;4983277;28;20035;-77
2023/02/03 09:31:45;;;;;;;17.50;9.02;;;12.70;63.00;;;;;;4999512;28;20031;-77
2023/02/03 09:34:11;;;;;;;17.15;9.63;;;12.70;63.00;;;;;;4984666;28;20073;-77
2023/02/03 09:36:37;;;;;;;20.23;11.20;;;12.70;63.00;;;;;;4984255;28;20367;-77
2023/02/03 09:39:03;;;;;;;19.38;9.63;;;12.70;62.90;;;;;;4983619;28;20042;-79
2023/02/03 09:41:52;;;;;;;15.68;9.27;;;12.70;62.90;;;;;;4982506;28;20090;-79
2023/02/03 09:44:20;;;;;;;17.65;9.77;;;12.80;62.80;;;;;;4982888;28;20030;-79
2023/02/03 09:46:55;;;;;;;20.08;9.93;;;12.80;62.70;;;;;;4983337;28;20045;-79
2023/02/03 09:49:38;;;;;;;16.93;10.10;;;12.80;62.70;;;;;;4984509;28;20412;-78
2023/02/03 09:52:14;;;;;;;19.98;9.82;;;12.80;62.80;;;;;;4984124;28;20588;-79
2023/02/03 09:54:51;;;;;;;19.08;10.85;;;12.80;62.80;;;;;;4982565;28;20023;-79
2023/02/03 09:57:22;;;;;;;16.83;9.20;;;12.90;62.90;;;;;;4982317;28;20041;-78
2023/02/03 09:59:49;;;;;;;17.02;9.68;;;12.80;62.80;;;;;;4983955;28;20038;-78
2023/02/03 10:02:54;;;;;;;16.73;9.10;;;12.90;62.80;;;;;;4982099;28;20709;-78
2023/02/03 10:05:24;;;;;;;16.45;9.30;;;12.90;63.00;;;;;;4981863;28;20043;-78
2023/02/03 10:07:59;;;;;;;17.98;9.90;;;12.90;62.80;;;;;;4983588;28;20660;-80
2023/02/03 10:11:09;;;;;;;14.67;8.97;;;12.90;62.80;;;;;;4982056;28;20400;-79
2023/02/03 10:13:41;;;;;;;13.52;8.23;;;12.90;62.70;;;;;;4922019;29;20284;-77
2023/02/03 10:16:32;;;;;;;17.95;9.27;;;13.00;62.80;;;;;;4923861;29;20051;-77
2023/02/03 10:19:01;;;;;;;14.40;8.30;;;13.00;62.80;;;;;;4907121;29;20046;-77
2023/02/03 10:21:30;;;;;;;14.68;8.77;;;13.00;62.70;;;;;;4922825;29;20396;-77
2023/02/03 10:23:58;;;;;;;13.05;7.85;;;13.00;62.80;;;;;;4907283;29;20054;-76
2023/02/03 10:26:27;;;;;;;12.48;8.25;;;13.00;62.80;;;;;;4906567;29;20087;-81
2023/02/03 10:29:01;;;;;;;12.38;7.95;;;13.00;62.80;;;;;;4922248;29;20054;-77
2023/02/03 10:31:33;;;;;;;12.48;8.43;;;13.00;62.70;;;;;;4923426;29;20549;-77
2023/02/03 10:34:11;;;;;;;13.70;8.27;;;13.00;62.60;;;;;;4922773;29;20596;-77
2023/02/03 10:36:46;;;;;;;13.63;8.10;;;13.00;62.50;;;;;;4922666;29;20454;-79
2023/02/03 10:39:29;;;;;;;14.73;9.10;;;13.10;62.50;;;;;;4923590;29;20511;-76
2023/02/03 10:41:55;;;;;;;11.23;7.60;;;13.10;62.50;;;;;;4922420;29;20036;-75
2023/02/03 10:44:29;;;;;;;14.15;8.30;;;13.10;63.10;;;;;;4907400;29;20065;-76
2023/02/03 10:46:56;;;;;;;14.70;8.57;;;13.10;62.60;;;;;;4922968;29;20047;-76
2023/02/03 10:49:26;;;;;;;14.15;8.13;;;13.10;62.60;;;;;;4924319;28;20042;-76
2023/02/03 10:51:55;;;;;;;13.85;8.25;;;13.10;62.70;;;;;;4984282;28;20484;-79
2023/02/03 10:54:32;;;;;;;17.85;8.10;;;13.10;62.70;;;;;;4983470;28;20033;-78
2023/02/03 10:57:04;;;;;;;15.68;9.35;;;13.10;62.90;;;;;;4982602;28;20109;-77
2023/02/03 10:59:34;;;;;;;13.63;8.40;;;13.20;62.90;;;;;;4984893;28;20034;-78
2023/02/03 11:02:08;;;;;;;13.93;8.45;;;13.20;63.10;;;;;;4981148;28;20405;-77
2023/02/03 11:04:35;;;;;;;15.88;9.10;;;13.20;63.30;;;;;;4983649;28;20027;-77
2023/02/03 11:07:07;;;;;;;11.48;7.60;;;13.20;63.40;;;;;;4982881;28;20034;-76
2023/02/03 11:09:33;;;;;;;13.45;8.15;;;13.20;63.50;;;;;;4998033;28;20035;-77
2023/02/03 11:12:12;;;;;;;12.45;8.10;;;13.20;63.70;;;;;;4980630;28;20042;-77
2023/02/03 11:14:43;;;;;;;13.20;7.85;;;13.20;63.80;;;;;;4982622;28;20030;-78
2023/02/03 11:17:18;;;;;;;13.93;7.95;;;13.20;63.90;;;;;;4997715;28;20381;-77
2023/02/03 11:19:50;;;;;;;12.43;7.60;;;13.20;63.90;;;;;;4985296;28;20455;-92
2023/02/03 11:22:36;;;;;;;16.58;7.70;;;13.30;64.00;;;;;;4987426;28;20501;-79
2023/02/03 11:25:15;;;;;;;10.85;7.75;;;13.20;63.80;;;;;;4985433;28;20513;-87
2023/02/03 11:27:41;;;;;;;13.45;7.43;;;13.30;64.10;;;;;;4982617;28;20042;-78
2023/02/03 11:30:24;;;;;;;13.48;7.57;;;13.30;64.90;;;;;;4983084;28;20037;-78
2023/02/03 11:32:51;;;;;;;12.85;7.38;;;13.30;64.30;;;;;;4998241;28;20041;-78
2023/02/03 11:35:21;;;;;;;11.85;7.60;;;13.30;64.40;;;;;;4986141;28;20045;-78
2023/02/03 11:37:50;;;;;;;12.27;7.90;;;13.30;64.40;;;;;;4986675;28;20409;-78
2023/02/03 11:40:17;;;;;;;12.13;6.82;;;13.30;64.40;;;;;;4984694;28;20034;-78
2023/02/03 11:42:57;;;;;;;11.23;6.55;;;13.30;64.40;;;;;;4985332;28;20069;-79
2023/02/03 11:45:33;;;;;;;10.93;7.28;;;13.30;64.40;;;;;;5001307;28;20057;-77
2023/02/03 11:48:34;;;;;;;10.93;7.35;;;13.30;64.40;;;;;;4986394;28;20049;-77
2023/02/03 11:51:08;;;;;;;12.77;6.53;;;13.40;64.50;;;;;;4984639;28;20517;-78
2023/02/03 11:54:18;;;;;;;12.05;7.70;;;13.40;64.40;;;;;;4986208;28;20030;-78
2023/02/03 11:57:03;;;;;;;11.48;6.93;;;13.40;64.50;;;;;;4985139;28;20541;-79
2023/02/03 12:00:12;;;;;;;10.32;6.45;;;13.40;64.70;;;;;;4985561;28;20034;-78
2023/02/03 12:03:14;;;;;;;10.93;6.60;;;13.40;64.80;;;;;;4927790;28;20071;-78
2023/02/03 12:06:04;;;;;;;11.20;6.63;;;13.40;64.70;;;;;;4937529;28;20042;-78
2023/02/03 12:09:11;;;;;;;10.63;6.60;;;13.40;64.80;;;;;;4937787;28;20047;-78
2023/02/03 12:11:48;;;;;;;;;;;13.40;64.70;;;;;;4905271;28;20616;-79
2023/02/03 12:14:34;;;;;;;;;;;13.50;64.70;;;;;;4938727;28;19965;-80
2023/02/03 12:17:29;;;;;;;9.57;6.25;;;13.50;64.60;;;;;;4934895;28;19919;-79
2023/02/03 12:20:25;;;;;;;11.90;7.15;;;13.50;64.50;;;;;;4938102;28;20031;-79
2023/02/03 12:23:06;;;;;;;11.40;6.28;;;13.50;64.60;;;;;;4925579;28;20564;-78
2023/02/03 12:25:48;;;;;;;13.55;7.22;;;13.50;64.50;;;;;;4926566;28;20129;-79
2023/02/03 12:28:50;;;;;;;10.25;6.82;;;13.50;64.40;;;;;;4937161;28;20570;-81
2023/02/03 12:31:38;;;;;;;11.20;6.75;;;13.50;64.40;;;;;;4912043;28;20182;-81
2023/02/03 12:34:31;;;;;;;10.27;6.68;;;13.50;64.30;;;;;;4974665;28;20091;-81
2023/02/03 12:37:07;;;;;;;10.07;6.63;;;13.50;64.30;;;;;;4986266;28;20073;-84
2023/02/03 12:39:41;;;;;;;9.82;6.43;;;13.60;64.40;;;;;;4987640;28;20045;-82
2023/02/03 12:42:38;;;;;;;10.93;6.45;;;13.60;64.30;;;;;;4985460;28;20050;-81
2023/02/03 12:45:17;;;;;;;13.73;6.88;;;13.60;64.30;;;;;;5000116;28;20075;-83
2023/02/03 12:47:45;;;;;;;10.15;6.43;;;13.60;64.20;;;;;;4987160;28;20034;-83
2023/02/03 12:50:17;;;;;;;8.70;6.57;;;13.60;64.20;;;;;;4984990;28;20531;-80
2023/02/03 12:52:52;;;;;;;11.30;6.47;;;13.60;64.50;;;;;;4985147;28;20124;-85
2023/02/03 12:55:34;;;;;;;11.95;7.15;;;13.60;64.80;;;;;;4984270;28;20084;-82